02/22 17:06 更新

弱い雨が降っている
3,000ftに雲が少し
6,000ftに雲が多い
8,000ftに雲が多い

地上風: 180°12kt

上空風
13,000ft: 250°60kt
10,000ft: 250°52kt
 7,000ft: 230°34kt
 3,000ft: 200°12kt

地上: 16℃
上空: -8.1℃

日没: 17:29

RJTJ 220806Z 18012KT 9999 -SHRA FEW030 BKN060 BKN080 16/07 Q1013 RMK 1CU030 6SC060 5AC080 A2993=